createdAt,value
2022-11-05T00:00:41.677Z,8.51
2022-11-05T00:03:26.433Z,8.62
2022-11-05T00:06:12.621Z,8.48
2022-11-05T00:08:59.840Z,8.36
2022-11-05T00:11:46.550Z,8.39
2022-11-05T00:14:32.164Z,8.60
2022-11-05T00:16:58.665Z,8.49
2022-11-05T00:19:25.190Z,8.50
2022-11-05T00:22:10.540Z,8.55
2022-11-05T00:24:55.909Z,8.27
2022-11-05T00:27:22.408Z,8.54
2022-11-05T00:29:48.910Z,8.41
2022-11-05T00:32:15.437Z,8.22
2022-11-05T00:34:41.913Z,8.33
2022-11-05T00:37:08.432Z,8.19
2022-11-05T00:39:34.961Z,8.14
2022-11-05T00:42:20.010Z,7.92
2022-11-05T00:45:01.344Z,8.06
2022-11-05T00:47:46.924Z,7.96
2022-11-05T00:50:17.304Z,8.05
2022-11-05T00:52:56.010Z,7.98
2022-11-05T00:55:24.381Z,8.14
2022-11-05T00:57:51.317Z,7.83
2022-11-05T01:00:18.563Z,7.99
2022-11-05T01:02:45.229Z,7.97
2022-11-05T01:05:12.459Z,7.95
2022-11-05T01:07:39.030Z,7.99
2022-11-05T01:10:06.070Z,7.84
2022-11-05T01:12:32.678Z,7.74
2022-11-05T01:14:59.352Z,7.80
2022-11-05T01:17:25.887Z,7.80
2022-11-05T01:19:52.423Z,7.89
2022-11-05T01:22:18.945Z,7.84
2022-11-05T01:24:48.325Z,7.70
2022-11-05T01:27:17.260Z,7.57
2022-11-05T01:29:43.790Z,7.60
2022-11-05T01:32:10.285Z,7.60
2022-11-05T01:34:36.769Z,7.45
2022-11-05T01:37:03.432Z,7.49
2022-11-05T01:39:29.992Z,7.36
2022-11-05T01:41:56.578Z,7.41
2022-11-05T01:44:54.061Z,7.58
2022-11-05T01:47:49.839Z,7.57
2022-11-05T01:50:37.431Z,7.58
2022-11-05T01:53:11.730Z,7.66
2022-11-05T01:55:47.545Z,7.40
2022-11-05T01:58:20.899Z,7.54
2022-11-05T02:00:50.580Z,7.37
2022-11-05T02:03:18.441Z,7.32
2022-11-05T02:05:48.491Z,7.44
2022-11-05T02:08:34.858Z,7.30
2022-11-05T02:11:01.592Z,7.37
2022-11-05T02:13:28.140Z,7.30
2022-11-05T02:16:01.980Z,7.32
2022-11-05T02:18:49.264Z,7.18
2022-11-05T02:21:49.857Z,7.16
2022-11-05T02:24:32.830Z,7.25
2022-11-05T02:27:08.429Z,7.20
2022-11-05T02:29:50.164Z,7.18
2022-11-05T02:32:34.902Z,7.04
2022-11-05T02:35:15.384Z,7.12
2022-11-05T02:37:49.892Z,7.06
2022-11-05T02:40:33.770Z,6.95
2022-11-05T02:43:16.138Z,6.84
2022-11-05T02:45:57.854Z,6.63
2022-11-05T02:48:50.544Z,6.50
2022-11-05T02:51:27.667Z,6.45
2022-11-05T02:54:06.404Z,6.46
2022-11-05T02:56:35.956Z,6.44
2022-11-05T02:59:02.512Z,6.30
2022-11-05T03:01:29.076Z,6.20
2022-11-05T03:04:05.316Z,6.28
2022-11-05T03:07:09.505Z,6.22
2022-11-05T03:09:54.878Z,6.22
2022-11-05T03:12:33.903Z,6.23
2022-11-05T03:15:29.690Z,6.35
2022-11-05T03:18:25.393Z,6.37
2022-11-05T03:21:06.843Z,6.32
2022-11-05T03:23:38.538Z,6.27
2022-11-05T03:26:24.064Z,6.41
2022-11-05T03:28:56.958Z,6.46
2022-11-05T03:31:27.094Z,6.38
2022-11-05T03:33:55.248Z,6.50
2022-11-05T03:36:31.401Z,6.49
2022-11-05T03:39:05.129Z,6.62
2022-11-05T03:41:33.679Z,6.49
2022-11-05T03:44:05.481Z,6.67
2022-11-05T03:46:34.434Z,6.76
2022-11-05T03:49:04.502Z,6.48
2022-11-05T03:51:48.266Z,6.68
2022-11-05T03:54:15.310Z,6.62
2022-11-05T03:57:00.095Z,6.75
2022-11-05T03:59:29.161Z,6.79
2022-11-05T04:01:56.870Z,6.83
2022-11-05T04:04:26.783Z,6.81
2022-11-05T04:07:15.303Z,6.67
2022-11-05T04:10:00.220Z,6.76
2022-11-05T04:12:45.218Z,6.82
2022-11-05T04:15:11.773Z,6.79
2022-11-05T04:17:38.265Z,6.77
2022-11-05T04:20:31.315Z,6.85
2022-11-05T04:23:24.714Z,6.83
2022-11-05T04:25:51.296Z,6.63
2022-11-05T04:28:18.074Z,6.89
2022-11-05T04:30:44.833Z,6.86
2022-11-05T04:33:16.113Z,6.75
2022-11-05T04:35:46.692Z,6.89
2022-11-05T04:38:15.698Z,6.63
2022-11-05T04:40:43.111Z,6.66
2022-11-05T04:43:16.791Z,6.47
2022-11-05T04:45:44.184Z,6.50
2022-11-05T04:48:11.155Z,6.30
2022-11-05T04:50:37.820Z,6.42
2022-11-05T04:53:04.325Z,6.49
2022-11-05T04:55:31.307Z,6.54
2022-11-05T04:57:57.830Z,6.52
2022-11-05T05:00:24.999Z,6.62
2022-11-05T05:02:51.666Z,6.56
2022-11-05T05:05:18.354Z,6.52
2022-11-05T05:07:44.969Z,6.30
2022-11-05T05:10:12.579Z,6.45
2022-11-05T05:12:39.118Z,6.38
2022-11-05T05:15:06.151Z,6.17
2022-11-05T05:17:32.679Z,6.23
2022-11-05T05:20:17.870Z,6.16
2022-11-05T05:22:44.387Z,6.17
2022-11-05T05:25:10.913Z,6.09
2022-11-05T05:27:37.437Z,5.87
2022-11-05T05:30:04.305Z,6.13
2022-11-05T05:32:30.847Z,6.07
2022-11-05T05:34:59.524Z,6.11
2022-11-05T05:37:26.073Z,5.89
2022-11-05T05:39:53.670Z,6.02
2022-11-05T05:42:21.380Z,6.09
2022-11-05T05:44:47.915Z,6.03
2022-11-05T05:47:14.498Z,5.87
2022-11-05T05:49:40.986Z,6.00
2022-11-05T05:52:07.752Z,5.87
2022-11-05T05:54:38.272Z,6.05
2022-11-05T05:57:07.937Z,6.01
2022-11-05T05:59:34.451Z,5.89
2022-11-05T06:02:01.099Z,5.90
2022-11-05T06:04:27.756Z,5.88
2022-11-05T06:06:54.271Z,5.91
2022-11-05T06:09:20.754Z,6.03
2022-11-05T06:11:47.231Z,5.89
2022-11-05T06:14:14.363Z,5.75
2022-11-05T06:16:41.247Z,5.71
2022-11-05T06:19:08.286Z,5.84
2022-11-05T06:21:35.291Z,5.81
2022-11-05T06:24:02.885Z,5.78
2022-11-05T06:26:31.929Z,5.76
2022-11-05T06:28:58.488Z,5.74
2022-11-05T06:31:25.429Z,5.51
2022-11-05T06:33:52.040Z,5.63
2022-11-05T06:36:19.584Z,5.74
2022-11-05T06:38:46.503Z,5.66
2022-11-05T06:41:13.454Z,5.67
2022-11-05T06:43:39.973Z,5.64
2022-11-05T06:46:06.908Z,5.67
2022-11-05T06:48:33.884Z,5.59
2022-11-05T06:51:00.417Z,5.60
2022-11-05T06:53:27.600Z,5.48
2022-11-05T06:55:54.161Z,5.43
2022-11-05T06:58:20.710Z,5.57
2022-11-05T07:00:47.542Z,5.43
2022-11-05T07:03:15.114Z,5.68
2022-11-05T07:05:46.455Z,5.65
2022-11-05T07:08:13.095Z,5.52
2022-11-05T07:10:39.746Z,5.69
2022-11-05T07:13:08.471Z,5.90
2022-11-05T07:15:36.910Z,6.01
2022-11-05T07:18:05.230Z,6.09
2022-11-05T07:20:34.174Z,6.16
2022-11-05T07:23:06.621Z,6.31
2022-11-05T07:25:37.419Z,6.31
2022-11-05T07:28:07.608Z,6.19
2022-11-05T07:30:35.912Z,6.22
2022-11-05T07:33:03.487Z,6.64
2022-11-05T07:35:30.024Z,6.47
2022-11-05T07:37:56.601Z,6.66
2022-11-05T07:40:25.328Z,6.67
2022-11-05T07:42:54.260Z,6.67
2022-11-05T07:45:21.139Z,6.87
2022-11-05T07:47:52.751Z,7.01
2022-11-05T07:50:21.445Z,7.07
2022-11-05T07:52:48.745Z,6.99
2022-11-05T07:55:16.329Z,6.96
2022-11-05T07:57:44.775Z,7.26
2022-11-05T08:00:14.248Z,7.37
2022-11-05T08:02:41.994Z,7.40
2022-11-05T08:05:09.811Z,7.57
2022-11-05T08:07:39.504Z,7.62
2022-11-05T08:10:06.979Z,7.77
2022-11-05T08:12:33.727Z,8.00
2022-11-05T08:15:00.308Z,8.25
2022-11-05T08:17:26.914Z,8.19
2022-11-05T08:19:53.432Z,8.91
2022-11-05T08:22:19.964Z,9.71
2022-11-05T08:24:46.627Z,10.07
2022-11-05T08:27:13.590Z,10.18
2022-11-05T08:29:40.104Z,10.08
2022-11-05T08:32:08.091Z,10.08
2022-11-05T08:34:34.661Z,10.11
2022-11-05T08:37:02.196Z,10.52
2022-11-05T08:39:28.779Z,10.64
2022-11-05T08:41:55.569Z,10.90
2022-11-05T08:44:22.200Z,11.42
2022-11-05T08:46:48.844Z,11.92
2022-11-05T08:49:15.411Z,11.85
2022-11-05T08:51:43.726Z,11.67
2022-11-05T08:54:10.278Z,11.25
2022-11-05T08:56:40.065Z,11.13
2022-11-05T08:59:08.155Z,10.97
2022-11-05T09:01:34.863Z,11.58
2022-11-05T09:04:01.613Z,12.68
2022-11-05T09:06:28.433Z,13.63
2022-11-05T09:08:55.179Z,14.02
2022-11-05T09:11:21.808Z,14.12
2022-11-05T09:13:48.396Z,13.99
2022-11-05T09:16:23.858Z,14.01
2022-11-05T09:18:51.385Z,13.96
2022-11-05T09:21:21.676Z,13.92
2022-11-05T09:23:48.796Z,13.84
2022-11-05T09:26:15.355Z,13.69
2022-11-05T09:28:43.593Z,13.65
2022-11-05T09:31:11.663Z,13.68
2022-11-05T09:33:41.424Z,13.79
2022-11-05T09:36:11.265Z,13.87
2022-11-05T09:38:39.551Z,13.93
2022-11-05T09:41:15.151Z,14.08
2022-11-05T09:43:51.597Z,14.13
2022-11-05T09:46:23.812Z,14.23
2022-11-05T09:48:55.159Z,14.28
2022-11-05T09:51:24.143Z,14.38
2022-11-05T09:53:53.759Z,14.39
2022-11-05T09:56:24.792Z,14.53
2022-11-05T09:58:58.789Z,14.55
2022-11-05T10:01:33.413Z,14.76
2022-11-05T10:04:06.237Z,14.84
2022-11-05T10:06:32.795Z,14.95
2022-11-05T10:09:25.143Z,14.84
2022-11-05T10:12:07.673Z,14.79
2022-11-05T10:14:44.981Z,14.66
2022-11-05T10:17:24.451Z,14.53
2022-11-05T10:19:58.203Z,14.04
2022-11-05T10:22:25.322Z,13.82
2022-11-05T10:24:53.521Z,13.63
2022-11-05T10:27:24.928Z,14.49
2022-11-05T10:29:52.206Z,14.94
2022-11-05T10:32:43.042Z,15.39
2022-11-05T10:35:18.470Z,15.67
2022-11-05T10:37:49.124Z,15.77
2022-11-05T10:40:53.600Z,15.91
2022-11-05T10:43:45.322Z,16.57
2022-11-05T10:46:32.650Z,17.14
2022-11-05T10:49:10.042Z,16.41
2022-11-05T10:51:39.318Z,15.79
2022-11-05T10:54:16.031Z,15.38
2022-11-05T10:56:42.651Z,15.07
2022-11-05T10:59:23.844Z,14.80
2022-11-05T11:02:19.768Z,14.89
2022-11-05T11:04:56.527Z,15.06
2022-11-05T11:07:25.576Z,14.96
2022-11-05T11:09:52.762Z,15.01
2022-11-05T11:12:26.013Z,14.98
2022-11-05T11:15:13.841Z,14.99
2022-11-05T11:17:41.155Z,14.72
2022-11-05T11:20:25.916Z,14.87
2022-11-05T11:23:12.724Z,14.94
2022-11-05T11:25:58.093Z,14.99
2022-11-05T11:28:30.975Z,15.09
2022-11-05T11:31:05.755Z,14.95
2022-11-05T11:33:35.362Z,14.91
2022-11-05T11:36:02.515Z,14.90
2022-11-05T11:38:34.613Z,14.98
2022-11-05T11:41:23.043Z,15.22
2022-11-05T11:43:59.529Z,15.30
2022-11-05T11:46:26.110Z,15.20
2022-11-05T11:48:52.658Z,15.16
2022-11-05T11:51:35.220Z,14.77
2022-11-05T11:54:03.935Z,14.83
2022-11-05T11:56:42.976Z,14.82
2022-11-05T11:59:53.847Z,14.92
2022-11-05T12:02:24.782Z,15.04
2022-11-05T12:05:12.674Z,15.18
2022-11-05T12:07:48.881Z,15.24
2022-11-05T12:10:28.531Z,15.24
2022-11-05T12:12:57.726Z,15.46
2022-11-05T12:15:56.808Z,15.56
2022-11-05T12:18:54.870Z,15.59
2022-11-05T12:21:54.996Z,15.65
2022-11-05T12:24:46.447Z,15.32
2022-11-05T12:27:33.965Z,15.14
2022-11-05T12:30:18.060Z,14.87
2022-11-05T12:33:18.116Z,15.29
2022-11-05T12:36:02.579Z,15.70
2022-11-05T12:38:46.905Z,15.78
2022-11-05T12:41:25.263Z,15.76
2022-11-05T12:44:09.105Z,15.78
2022-11-05T12:46:44.599Z,15.87
2022-11-05T12:49:23.169Z,16.00
2022-11-05T12:52:10.568Z,16.14
2022-11-05T12:54:49.075Z,16.10
2022-11-05T12:57:17.314Z,15.76
2022-11-05T12:59:53.758Z,15.57
2022-11-05T13:02:20.285Z,15.41
2022-11-05T13:04:54.306Z,15.32
2022-11-05T13:07:29.403Z,15.33
2022-11-05T13:10:01.285Z,15.32
2022-11-05T13:12:31.851Z,15.39
2022-11-05T13:15:03.582Z,15.38
2022-11-05T13:17:49.884Z,15.28
2022-11-05T13:20:21.298Z,15.02
2022-11-05T13:23:07.189Z,14.95
2022-11-05T13:25:43.009Z,14.88
2022-11-05T13:28:28.006Z,14.89
2022-11-05T13:30:57.895Z,14.94
2022-11-05T13:33:36.597Z,14.85
2022-11-05T13:36:42.885Z,14.94
2022-11-05T13:39:18.304Z,14.93
2022-11-05T13:42:21.115Z,15.01
2022-11-05T13:44:50.642Z,14.92
2022-11-05T13:48:06.636Z,14.92
2022-11-05T13:50:46.334Z,14.91
2022-11-05T13:53:50.032Z,14.97
2022-11-05T13:56:48.756Z,15.11
2022-11-05T13:59:49.922Z,15.47
2022-11-05T14:02:28.148Z,15.76
2022-11-05T14:05:02.393Z,16.01
2022-11-05T14:07:38.865Z,16.14
2022-11-05T14:10:45.687Z,16.35
2022-11-05T14:13:15.256Z,16.51
2022-11-05T14:16:06.329Z,16.80
2022-11-05T14:18:53.264Z,16.67
2022-11-05T14:21:25.749Z,16.46
2022-11-05T14:23:57.974Z,16.35
2022-11-05T14:26:30.325Z,16.42
2022-11-05T14:29:02.578Z,16.22
2022-11-05T14:32:08.171Z,15.90
2022-11-05T14:34:47.179Z,16.15
2022-11-05T14:37:27.233Z,16.49
2022-11-05T14:39:55.081Z,16.41
2022-11-05T14:42:26.449Z,16.35
2022-11-05T14:45:02.120Z,16.09
2022-11-05T14:47:34.065Z,15.90
2022-11-05T14:50:00.589Z,15.75
2022-11-05T14:52:27.761Z,15.56
2022-11-05T14:54:57.032Z,15.46
2022-11-05T14:57:47.163Z,15.41
2022-11-05T15:00:28.887Z,15.05
2022-11-05T15:03:29.303Z,14.83
2022-11-05T15:06:04.833Z,14.38
2022-11-05T15:08:54.058Z,14.20
2022-11-05T15:11:29.206Z,14.02
2022-11-05T15:13:55.654Z,13.93
2022-11-05T15:16:42.505Z,13.77
2022-11-05T15:19:23.640Z,13.66
2022-11-05T15:21:51.223Z,13.44
2022-11-05T15:24:20.019Z,13.47
2022-11-05T15:26:46.484Z,13.41
2022-11-05T15:29:22.445Z,13.15
2022-11-05T15:31:50.271Z,13.11
2022-11-05T15:34:23.347Z,12.99
2022-11-05T15:36:55.983Z,13.06
2022-11-05T15:39:48.695Z,13.00
2022-11-05T15:42:24.096Z,12.86
2022-11-05T15:45:00.182Z,12.79
2022-11-05T15:47:31.472Z,12.85
2022-11-05T15:50:01.330Z,12.89
2022-11-05T15:52:36.826Z,12.83
2022-11-05T15:55:17.467Z,12.97
2022-11-05T15:57:51.363Z,12.91
2022-11-05T16:00:22.645Z,12.97
2022-11-05T16:02:58.578Z,12.99
2022-11-05T16:05:32.360Z,12.80
2022-11-05T16:08:00.058Z,12.56
2022-11-05T16:10:31.090Z,12.45
2022-11-05T16:12:57.679Z,12.34
2022-11-05T16:15:29.462Z,12.24
2022-11-05T16:17:59.023Z,12.13
2022-11-05T16:20:32.834Z,12.05
2022-11-05T16:23:07.790Z,11.90
2022-11-05T16:25:38.981Z,11.81
2022-11-05T16:28:27.489Z,11.73
2022-11-05T16:31:03.613Z,11.70
2022-11-05T16:33:46.470Z,11.59
2022-11-05T16:36:13.091Z,11.56
2022-11-05T16:38:40.824Z,11.53
2022-11-05T16:41:15.953Z,11.42
2022-11-05T16:43:53.690Z,11.47
2022-11-05T16:46:21.391Z,11.45
2022-11-05T16:48:48.405Z,11.40
2022-11-05T16:51:23.315Z,11.30
2022-11-05T16:53:52.830Z,11.40
2022-11-05T16:56:22.112Z,11.29
2022-11-05T16:58:49.747Z,11.45
2022-11-05T17:01:25.698Z,11.44
2022-11-05T17:03:53.421Z,11.35
2022-11-05T17:06:21.485Z,11.30
2022-11-05T17:08:48.892Z,11.32
2022-11-05T17:11:21.306Z,11.17
2022-11-05T17:13:48.297Z,11.16
2022-11-05T17:16:20.128Z,11.21
2022-11-05T17:18:50.372Z,11.15
2022-11-05T17:21:20.432Z,11.06
2022-11-05T17:23:50.181Z,10.96
2022-11-05T17:26:19.871Z,10.92
2022-11-05T17:28:48.578Z,10.86
2022-11-05T17:31:18.193Z,10.79
2022-11-05T17:33:54.149Z,10.64
2022-11-05T17:36:20.659Z,10.58
2022-11-05T17:38:49.983Z,10.52
2022-11-05T17:41:22.644Z,10.54
2022-11-05T17:43:54.046Z,10.55
2022-11-05T17:46:21.139Z,10.40
2022-11-05T17:48:51.253Z,10.24
2022-11-05T17:51:19.280Z,10.20
2022-11-05T17:53:49.172Z,10.21
2022-11-05T17:56:29.189Z,10.17
2022-11-05T17:59:01.106Z,10.09
2022-11-05T18:01:33.781Z,10.04
2022-11-05T18:04:07.282Z,10.00
2022-11-05T18:06:39.484Z,9.79
2022-11-05T18:09:08.409Z,9.69
2022-11-05T18:11:35.903Z,9.72
2022-11-05T18:14:03.758Z,9.63
2022-11-05T18:16:30.816Z,9.53
2022-11-05T18:18:57.661Z,9.49
2022-11-05T18:21:24.863Z,9.34
2022-11-05T18:23:51.710Z,9.22
2022-11-05T18:26:22.214Z,9.22
2022-11-05T18:28:51.791Z,9.09
2022-11-05T18:31:22.661Z,9.13
2022-11-05T18:33:56.015Z,9.15
2022-11-05T18:36:28.277Z,9.13
2022-11-05T18:38:57.591Z,9.23
2022-11-05T18:41:26.627Z,9.17
2022-11-05T18:43:53.144Z,9.13
2022-11-05T18:46:51.166Z,9.07
2022-11-05T18:49:11.847Z,9.06
2022-11-05T18:51:38.602Z,8.90
2022-11-05T18:54:05.316Z,8.74
2022-11-05T18:56:31.903Z,8.53
2022-11-05T18:59:22.083Z,8.41
2022-11-05T19:01:45.441Z,8.36
2022-11-05T19:04:12.248Z,8.38
2022-11-05T19:06:39.721Z,8.37
2022-11-05T19:09:09.775Z,8.20
2022-11-05T19:11:36.504Z,8.20
2022-11-05T19:14:03.046Z,8.12
2022-11-05T19:16:30.838Z,8.29
2022-11-05T19:19:02.409Z,8.39
2022-11-05T19:21:29.419Z,8.15
2022-11-05T19:23:59.485Z,8.06
2022-11-05T19:26:28.910Z,8.11
2022-11-05T19:28:58.342Z,7.88
2022-11-05T19:31:25.277Z,8.06
2022-11-05T19:33:55.137Z,8.05
2022-11-05T19:36:25.790Z,7.84
2022-11-05T19:38:58.876Z,7.87
2022-11-05T19:41:28.674Z,7.82
2022-11-05T19:43:57.917Z,7.89
2022-11-05T19:46:25.493Z,7.75
2022-11-05T19:48:54.098Z,7.71
2022-11-05T19:51:28.292Z,7.79
2022-11-05T19:53:55.341Z,7.92
2022-11-05T19:56:24.763Z,7.87
2022-11-05T19:58:54.538Z,7.82
2022-11-05T20:01:27.090Z,7.93
2022-11-05T20:03:56.768Z,7.88
2022-11-05T20:06:31.890Z,7.64
2022-11-05T20:11:49.982Z,7.77
2022-11-05T20:14:17.252Z,7.65
2022-11-05T20:16:45.622Z,7.40
2022-11-05T20:19:17.499Z,7.52
2022-11-05T20:21:44.544Z,7.39
2022-11-05T20:24:15.226Z,7.44
2022-11-05T20:26:45.198Z,7.45
2022-11-05T20:29:12.961Z,7.74
2022-11-05T20:31:39.506Z,7.79
2022-11-05T20:34:06.081Z,7.92
2022-11-05T20:36:32.777Z,7.79
2022-11-05T20:38:59.429Z,7.65
2022-11-05T20:41:30.741Z,7.42
2022-11-05T20:43:57.456Z,7.35
2022-11-05T20:46:27.607Z,7.44
2022-11-05T20:48:57.144Z,7.16
2022-11-05T20:51:27.115Z,7.22
2022-11-05T20:53:56.680Z,7.19
2022-11-05T20:56:29.617Z,7.03
2022-11-05T20:58:58.461Z,7.04
2022-11-05T21:01:27.674Z,6.97
2022-11-05T21:03:57.700Z,6.83
2022-11-05T21:06:27.222Z,6.95
2022-11-05T21:08:57.471Z,6.98
2022-11-05T21:11:27.057Z,6.91
2022-11-05T21:13:57.309Z,6.79
2022-11-05T21:16:27.810Z,6.90
2022-11-05T21:18:57.451Z,6.92
2022-11-05T21:21:28.277Z,7.13
2022-11-05T21:23:57.127Z,7.12
2022-11-05T21:26:25.936Z,7.14
2022-11-05T21:28:52.470Z,7.32
2022-11-05T21:31:19.051Z,7.18
2022-11-05T21:33:45.533Z,7.17
2022-11-05T21:36:13.083Z,6.94
2022-11-05T21:38:40.825Z,6.91
2022-11-05T21:41:08.336Z,7.08
2022-11-05T21:43:34.929Z,6.85
2022-11-05T21:46:03.219Z,6.72
2022-11-05T21:48:30.557Z,6.46
2022-11-05T21:51:19.078Z,6.60
2022-11-05T21:54:03.794Z,6.58
2022-11-05T21:56:49.149Z,6.73
2022-11-05T21:59:37.325Z,6.60
2022-11-05T22:02:05.070Z,6.60
2022-11-05T22:04:37.075Z,6.56
2022-11-05T22:07:04.479Z,6.51
2022-11-05T22:09:31.263Z,6.56
2022-11-05T22:12:01.262Z,6.54
2022-11-05T22:14:30.768Z,6.54
2022-11-05T22:17:07.595Z,6.70
2022-11-05T22:19:34.540Z,6.52
2022-11-05T22:22:01.315Z,6.55
2022-11-05T22:24:32.025Z,6.49
2022-11-05T22:27:06.994Z,6.59
2022-11-05T22:29:33.661Z,6.79
2022-11-05T22:32:00.193Z,6.90
2022-11-05T22:34:29.265Z,6.95
2022-11-05T22:36:55.805Z,7.07
2022-11-05T22:39:22.323Z,7.02
2022-11-05T22:41:48.917Z,6.68
2022-11-05T22:44:16.734Z,6.63
2022-11-05T22:46:43.261Z,6.71
2022-11-05T22:49:09.912Z,6.63
2022-11-05T22:51:38.889Z,6.60
2022-11-05T22:54:06.479Z,6.47
2022-11-05T22:56:36.356Z,6.38
2022-11-05T22:59:03.971Z,6.61
2022-11-05T23:01:33.834Z,6.74
2022-11-05T23:04:03.252Z,6.69
2022-11-05T23:06:51.211Z,6.47
2022-11-05T23:09:37.570Z,6.68
2022-11-05T23:12:07.996Z,6.53
2022-11-05T23:14:36.485Z,6.41
2022-11-05T23:17:21.815Z,6.60
2022-11-05T23:20:06.810Z,6.75
2022-11-05T23:22:51.509Z,6.52
2022-11-05T23:25:21.385Z,6.69
2022-11-05T23:27:51.372Z,6.70
2022-11-05T23:30:24.125Z,6.64
2022-11-05T23:32:51.466Z,6.72
2022-11-05T23:35:38.745Z,6.68
2022-11-05T23:38:23.960Z,6.72
2022-11-05T23:41:08.847Z,6.69
2022-11-05T23:44:04.203Z,6.55
2022-11-05T23:46:48.925Z,6.65
2022-11-05T23:49:15.463Z,6.70
2022-11-05T23:51:42.189Z,6.73
2022-11-05T23:54:08.744Z,6.66
2022-11-05T23:56:35.280Z,6.89
2022-11-05T23:59:04.946Z,6.90
